sensor_id;sensor_type;location;lat;lon;timestamp;temperature;humidity
3275;DHT22;1649;53.672;10.064;2024-03-17T00:01:50;4.10;99.90
3275;DHT22;1649;53.672;10.064;2024-03-17T00:04:15;4.10;99.90
3275;DHT22;1649;53.672;10.064;2024-03-17T00:06:41;4.10;99.90
3275;DHT22;1649;53.672;10.064;2024-03-17T00:09:06;4.10;99.90
3275;DHT22;1649;53.672;10.064;2024-03-17T00:11:35;4.10;99.90
3275;DHT22;1649;53.672;10.064;2024-03-17T00:14:01;4.20;99.90
3275;DHT22;1649;53.672;10.064;2024-03-17T00:16:27;4.10;99.90
3275;DHT22;1649;53.672;10.064;2024-03-17T00:18:53;4.10;99.90
3275;DHT22;1649;53.672;10.064;2024-03-17T00:21:18;4.10;99.90
3275;DHT22;1649;53.672;10.064;2024-03-17T00:23:47;4.00;99.90
3275;DHT22;1649;53.672;10.064;2024-03-17T00:26:12;4.00;99.90
3275;DHT22;1649;53.672;10.064;2024-03-17T00:28:38;4.00;99.90
3275;DHT22;1649;53.672;10.064;2024-03-17T00:31:05;3.90;99.90
3275;DHT22;1649;53.672;10.064;2024-03-17T00:33:30;3.90;99.90
3275;DHT22;1649;53.672;10.064;2024-03-17T00:35:56;3.90;99.90
3275;DHT22;1649;53.672;10.064;2024-03-17T00:38:21;3.90;99.90
3275;DHT22;1649;53.672;10.064;2024-03-17T00:40:47;3.90;99.90
3275;DHT22;1649;53.672;10.064;2024-03-17T00:43:14;3.90;99.90
3275;DHT22;1649;53.672;10.064;2024-03-17T00:45:39;3.90;99.90
3275;DHT22;1649;53.672;10.064;2024-03-17T00:48:05;3.90;99.90
3275;DHT22;1649;53.672;10.064;2024-03-17T00:50:31;3.80;99.90
3275;DHT22;1649;53.672;10.064;2024-03-17T00:52:57;3.90;99.90
3275;DHT22;1649;53.672;10.064;2024-03-17T00:55:22;3.90;99.90
3275;DHT22;1649;53.672;10.064;2024-03-17T00:57:48;4.00;99.90
3275;DHT22;1649;53.672;10.064;2024-03-17T01:00:14;4.00;99.90
3275;DHT22;1649;53.672;10.064;2024-03-17T01:02:40;4.10;99.90
3275;DHT22;1649;53.672;10.064;2024-03-17T01:05:06;4.20;99.90
3275;DHT22;1649;53.672;10.064;2024-03-17T01:07:33;4.30;99.90
3275;DHT22;1649;53.672;10.064;2024-03-17T01:09:58;4.30;99.90
3275;DHT22;1649;53.672;10.064;2024-03-17T01:12:24;4.30;99.90
3275;DHT22;1649;53.672;10.064;2024-03-17T01:14:50;4.30;99.90
3275;DHT22;1649;53.672;10.064;2024-03-17T01:17:16;4.30;99.90
3275;DHT22;1649;53.672;10.064;2024-03-17T01:19:41;4.30;99.90
3275;DHT22;1649;53.672;10.064;2024-03-17T01:22:07;4.30;99.90
3275;DHT22;1649;53.672;10.064;2024-03-17T01:24:32;4.10;99.90
3275;DHT22;1649;53.672;10.064;2024-03-17T01:26:59;4.20;99.90
3275;DHT22;1649;53.672;10.064;2024-03-17T01:29:25;4.20;99.90
3275;DHT22;1649;53.672;10.064;2024-03-17T01:31:51;4.20;99.90
3275;DHT22;1649;53.672;10.064;2024-03-17T01:34:22;4.10;99.90
3275;DHT22;1649;53.672;10.064;2024-03-17T01:36:47;4.10;99.90
3275;DHT22;1649;53.672;10.064;2024-03-17T01:39:13;4.10;99.90
3275;DHT22;1649;53.672;10.064;2024-03-17T01:41:39;4.20;99.90
3275;DHT22;1649;53.672;10.064;2024-03-17T01:44:04;4.20;99.90
3275;DHT22;1649;53.672;10.064;2024-03-17T01:46:30;4.20;99.90
3275;DHT22;1649;53.672;10.064;2024-03-17T01:48:55;4.10;99.90
3275;DHT22;1649;53.672;10.064;2024-03-17T01:51:22;4.10;99.90
3275;DHT22;1649;53.672;10.064;2024-03-17T01:53:48;4.10;99.90
3275;DHT22;1649;53.672;10.064;2024-03-17T01:56:16;4.20;99.90
3275;DHT22;1649;53.672;10.064;2024-03-17T01:58:45;4.20;99.90
3275;DHT22;1649;53.672;10.064;2024-03-17T02:01:11;4.20;99.90
3275;DHT22;1649;53.672;10.064;2024-03-17T02:03:40;4.20;99.90
3275;DHT22;1649;53.672;10.064;2024-03-17T02:06:10;4.20;99.90
3275;DHT22;1649;53.672;10.064;2024-03-17T02:08:49;4.20;99.90
3275;DHT22;1649;53.672;10.064;2024-03-17T02:11:25;4.20;99.90
3275;DHT22;1649;53.672;10.064;2024-03-17T02:13:52;4.10;99.90
3275;DHT22;1649;53.672;10.064;2024-03-17T02:16:17;4.10;99.90
3275;DHT22;1649;53.672;10.064;2024-03-17T02:18:44;4.10;99.90
3275;DHT22;1649;53.672;10.064;2024-03-17T02:21:10;4.00;99.90
3275;DHT22;1649;53.672;10.064;2024-03-17T02:23:35;3.90;99.90
3275;DHT22;1649;53.672;10.064;2024-03-17T02:26:01;3.80;99.90
3275;DHT22;1649;53.672;10.064;2024-03-17T02:28:26;3.70;99.90
3275;DHT22;1649;53.672;10.064;2024-03-17T02:30:52;3.80;99.90
3275;DHT22;1649;53.672;10.064;2024-03-17T02:33:17;3.80;99.90
3275;DHT22;1649;53.672;10.064;2024-03-17T02:35:43;3.80;99.90
3275;DHT22;1649;53.672;10.064;2024-03-17T02:38:09;3.90;99.90
3275;DHT22;1649;53.672;10.064;2024-03-17T02:40:40;3.90;99.90
3275;DHT22;1649;53.672;10.064;2024-03-17T02:43:06;3.80;99.90
3275;DHT22;1649;53.672;10.064;2024-03-17T02:45:31;3.80;99.90
3275;DHT22;1649;53.672;10.064;2024-03-17T02:47:57;3.70;99.90
3275;DHT22;1649;53.672;10.064;2024-03-17T02:50:22;3.70;99.90
3275;DHT22;1649;53.672;10.064;2024-03-17T02:52:48;3.70;99.90
3275;DHT22;1649;53.672;10.064;2024-03-17T02:55:14;3.70;99.90
3275;DHT22;1649;53.672;10.064;2024-03-17T02:57:39;3.60;99.90
3275;DHT22;1649;53.672;10.064;2024-03-17T03:00:06;3.70;99.90
3275;DHT22;1649;53.672;10.064;2024-03-17T03:02:34;3.60;99.90
3275;DHT22;1649;53.672;10.064;2024-03-17T03:04:59;3.60;99.90
3275;DHT22;1649;53.672;10.064;2024-03-17T03:07:25;3.60;99.90
3275;DHT22;1649;53.672;10.064;2024-03-17T03:09:51;3.60;99.90
3275;DHT22;1649;53.672;10.064;2024-03-17T03:12:16;3.50;99.90
3275;DHT22;1649;53.672;10.064;2024-03-17T03:14:42;3.40;99.90
3275;DHT22;1649;53.672;10.064;2024-03-17T03:17:07;3.40;99.90
3275;DHT22;1649;53.672;10.064;2024-03-17T03:19:33;3.40;99.90
3275;DHT22;1649;53.672;10.064;2024-03-17T03:21:59;3.30;99.90
3275;DHT22;1649;53.672;10.064;2024-03-17T03:24:25;3.30;99.90
3275;DHT22;1649;53.672;10.064;2024-03-17T03:26:50;3.30;99.90
3275;DHT22;1649;53.672;10.064;2024-03-17T03:29:16;3.30;99.90
3275;DHT22;1649;53.672;10.064;2024-03-17T03:31:42;3.40;99.90
3275;DHT22;1649;53.672;10.064;2024-03-17T03:34:07;3.30;99.90
3275;DHT22;1649;53.672;10.064;2024-03-17T03:36:34;3.10;99.90
3275;DHT22;1649;53.672;10.064;2024-03-17T03:39:01;3.10;99.90
3275;DHT22;1649;53.672;10.064;2024-03-17T03:41:27;3.10;99.90
3275;DHT22;1649;53.672;10.064;2024-03-17T03:43:53;3.00;99.90
3275;DHT22;1649;53.672;10.064;2024-03-17T03:46:19;3.00;99.90
3275;DHT22;1649;53.672;10.064;2024-03-17T03:48:45;2.90;99.90
3275;DHT22;1649;53.672;10.064;2024-03-17T03:51:11;2.90;99.90
3275;DHT22;1649;53.672;10.064;2024-03-17T03:53:37;2.80;99.90
3275;DHT22;1649;53.672;10.064;2024-03-17T03:56:04;2.70;99.90
3275;DHT22;1649;53.672;10.064;2024-03-17T03:58:39;2.80;99.90
3275;DHT22;1649;53.672;10.064;2024-03-17T04:01:07;2.70;99.90
3275;DHT22;1649;53.672;10.064;2024-03-17T04:03:33;2.80;99.90
3275;DHT22;1649;53.672;10.064;2024-03-17T04:06:09;3.00;99.90
3275;DHT22;1649;53.672;10.064;2024-03-17T04:08:37;3.10;99.90
3275;DHT22;1649;53.672;10.064;2024-03-17T04:11:03;3.20;99.90
3275;DHT22;1649;53.672;10.064;2024-03-17T04:13:29;3.30;99.90
3275;DHT22;1649;53.672;10.064;2024-03-17T04:15:58;3.30;99.90
3275;DHT22;1649;53.672;10.064;2024-03-17T04:18:27;3.40;99.90
3275;DHT22;1649;53.672;10.064;2024-03-17T04:20:56;3.40;99.90
3275;DHT22;1649;53.672;10.064;2024-03-17T04:23:22;3.40;99.90
3275;DHT22;1649;53.672;10.064;2024-03-17T04:25:49;3.40;99.90
3275;DHT22;1649;53.672;10.064;2024-03-17T04:28:15;3.50;99.90
3275;DHT22;1649;53.672;10.064;2024-03-17T04:30:41;3.50;99.90
3275;DHT22;1649;53.672;10.064;2024-03-17T04:33:08;3.60;99.90
3275;DHT22;1649;53.672;10.064;2024-03-17T04:35:37;3.60;99.90
3275;DHT22;1649;53.672;10.064;2024-03-17T04:38:03;3.50;99.90
3275;DHT22;1649;53.672;10.064;2024-03-17T04:40:29;3.50;99.90
3275;DHT22;1649;53.672;10.064;2024-03-17T04:42:56;3.50;99.90
3275;DHT22;1649;53.672;10.064;2024-03-17T04:45:21;3.50;99.90
3275;DHT22;1649;53.672;10.064;2024-03-17T04:47:46;3.50;99.90
3275;DHT22;1649;53.672;10.064;2024-03-17T04:50:12;3.50;99.90
3275;DHT22;1649;53.672;10.064;2024-03-17T04:52:38;3.40;99.90
3275;DHT22;1649;53.672;10.064;2024-03-17T04:55:04;3.40;99.90
3275;DHT22;1649;53.672;10.064;2024-03-17T04:57:29;3.50;99.90
3275;DHT22;1649;53.672;10.064;2024-03-17T04:59:55;3.50;99.90
3275;DHT22;1649;53.672;10.064;2024-03-17T05:02:20;3.40;99.90
3275;DHT22;1649;53.672;10.064;2024-03-17T05:04:48;3.40;99.90
3275;DHT22;1649;53.672;10.064;2024-03-17T05:07:14;3.30;99.90
3275;DHT22;1649;53.672;10.064;2024-03-17T05:09:39;3.30;99.90
3275;DHT22;1649;53.672;10.064;2024-03-17T05:12:05;3.30;99.90
3275;DHT22;1649;53.672;10.064;2024-03-17T05:14:30;3.30;99.90
3275;DHT22;1649;53.672;10.064;2024-03-17T05:16:56;3.30;99.90
3275;DHT22;1649;53.672;10.064;2024-03-17T05:19:21;3.30;99.90
3275;DHT22;1649;53.672;10.064;2024-03-17T05:21:48;3.30;99.90
3275;DHT22;1649;53.672;10.064;2024-03-17T05:24:14;3.20;99.90
3275;DHT22;1649;53.672;10.064;2024-03-17T05:26:40;3.20;99.90
3275;DHT22;1649;53.672;10.064;2024-03-17T05:29:07;3.10;99.90
3275;DHT22;1649;53.672;10.064;2024-03-17T05:31:33;3.20;99.90
3275;DHT22;1649;53.672;10.064;2024-03-17T05:33:59;3.10;99.90
3275;DHT22;1649;53.672;10.064;2024-03-17T05:36:25;3.10;99.90
3275;DHT22;1649;53.672;10.064;2024-03-17T05:38:51;3.10;99.90
3275;DHT22;1649;53.672;10.064;2024-03-17T05:41:16;3.10;99.90
3275;DHT22;1649;53.672;10.064;2024-03-17T05:43:41;3.00;99.90
3275;DHT22;1649;53.672;10.064;2024-03-17T05:46:09;3.00;99.90
3275;DHT22;1649;53.672;10.064;2024-03-17T05:48:36;3.00;99.90
3275;DHT22;1649;53.672;10.064;2024-03-17T05:51:10;3.00;99.90
3275;DHT22;1649;53.672;10.064;2024-03-17T05:53:36;3.00;99.90
3275;DHT22;1649;53.672;10.064;2024-03-17T05:56:03;3.00;99.90
3275;DHT22;1649;53.672;10.064;2024-03-17T05:58:29;3.00;99.90
3275;DHT22;1649;53.672;10.064;2024-03-17T06:00:55;3.00;99.90
3275;DHT22;1649;53.672;10.064;2024-03-17T06:03:20;3.00;99.90
3275;DHT22;1649;53.672;10.064;2024-03-17T06:05:47;3.00;99.90
3275;DHT22;1649;53.672;10.064;2024-03-17T06:08:13;2.90;99.90
3275;DHT22;1649;53.672;10.064;2024-03-17T06:10:46;3.00;99.90
3275;DHT22;1649;53.672;10.064;2024-03-17T06:13:12;3.00;99.90
3275;DHT22;1649;53.672;10.064;2024-03-17T06:15:39;3.00;99.90
3275;DHT22;1649;53.672;10.064;2024-03-17T06:18:05;3.00;99.90
3275;DHT22;1649;53.672;10.064;2024-03-17T06:20:34;3.00;99.90
3275;DHT22;1649;53.672;10.064;2024-03-17T06:23:00;3.10;99.90
3275;DHT22;1649;53.672;10.064;2024-03-17T06:25:26;3.10;99.90
3275;DHT22;1649;53.672;10.064;2024-03-17T06:27:51;3.20;99.90
3275;DHT22;1649;53.672;10.064;2024-03-17T06:30:17;3.30;99.90
3275;DHT22;1649;53.672;10.064;2024-03-17T06:32:44;3.70;99.90
3275;DHT22;1649;53.672;10.064;2024-03-17T06:35:14;4.00;99.90
3275;DHT22;1649;53.672;10.064;2024-03-17T06:37:51;4.20;99.90
3275;DHT22;1649;53.672;10.064;2024-03-17T06:40:17;4.50;99.90
3275;DHT22;1649;53.672;10.064;2024-03-17T06:42:43;4.50;99.90
3275;DHT22;1649;53.672;10.064;2024-03-17T06:45:08;4.50;99.90
3275;DHT22;1649;53.672;10.064;2024-03-17T06:47:37;4.50;99.90
3275;DHT22;1649;53.672;10.064;2024-03-17T06:50:04;4.50;99.90
3275;DHT22;1649;53.672;10.064;2024-03-17T06:52:30;4.50;99.90
3275;DHT22;1649;53.672;10.064;2024-03-17T06:54:59;4.60;99.90
3275;DHT22;1649;53.672;10.064;2024-03-17T06:57:24;4.60;99.90
3275;DHT22;1649;53.672;10.064;2024-03-17T06:59:50;4.70;99.90
3275;DHT22;1649;53.672;10.064;2024-03-17T07:02:16;4.60;99.90
3275;DHT22;1649;53.672;10.064;2024-03-17T07:04:44;4.70;99.90
3275;DHT22;1649;53.672;10.064;2024-03-17T07:07:09;4.60;99.90
3275;DHT22;1649;53.672;10.064;2024-03-17T07:09:35;4.70;99.90
3275;DHT22;1649;53.672;10.064;2024-03-17T07:12:01;4.70;99.90
3275;DHT22;1649;53.672;10.064;2024-03-17T07:14:27;4.70;99.90
3275;DHT22;1649;53.672;10.064;2024-03-17T07:16:53;4.70;99.90
3275;DHT22;1649;53.672;10.064;2024-03-17T07:19:18;4.70;99.90
3275;DHT22;1649;53.672;10.064;2024-03-17T07:21:44;4.70;99.90
3275;DHT22;1649;53.672;10.064;2024-03-17T07:24:10;4.70;99.90
3275;DHT22;1649;53.672;10.064;2024-03-17T07:26:35;4.80;99.90
3275;DHT22;1649;53.672;10.064;2024-03-17T07:29:01;4.70;99.90
3275;DHT22;1649;53.672;10.064;2024-03-17T07:31:26;4.80;99.90
3275;DHT22;1649;53.672;10.064;2024-03-17T07:33:52;4.80;99.90
3275;DHT22;1649;53.672;10.064;2024-03-17T07:36:17;5.00;99.90
3275;DHT22;1649;53.672;10.064;2024-03-17T07:38:43;5.10;99.90
3275;DHT22;1649;53.672;10.064;2024-03-17T07:41:09;5.20;99.90
3275;DHT22;1649;53.672;10.064;2024-03-17T07:43:38;5.30;99.90
3275;DHT22;1649;53.672;10.064;2024-03-17T07:46:09;5.30;99.90
3275;DHT22;1649;53.672;10.064;2024-03-17T07:48:38;5.50;99.90
3275;DHT22;1649;53.672;10.064;2024-03-17T07:51:06;5.60;99.90
3275;DHT22;1649;53.672;10.064;2024-03-17T07:53:32;5.70;99.90
3275;DHT22;1649;53.672;10.064;2024-03-17T07:56:09;6.00;99.90
3275;DHT22;1649;53.672;10.064;2024-03-17T07:58:41;6.30;99.90
3275;DHT22;1649;53.672;10.064;2024-03-17T08:01:08;6.80;99.90
3275;DHT22;1649;53.672;10.064;2024-03-17T08:03:36;7.30;99.90
3275;DHT22;1649;53.672;10.064;2024-03-17T08:06:04;7.80;99.90
3275;DHT22;1649;53.672;10.064;2024-03-17T08:08:31;8.00;99.90
3275;DHT22;1649;53.672;10.064;2024-03-17T08:10:57;8.00;99.90
3275;DHT22;1649;53.672;10.064;2024-03-17T08:13:23;7.90;99.90
3275;DHT22;1649;53.672;10.064;2024-03-17T08:15:59;7.80;99.90
3275;DHT22;1649;53.672;10.064;2024-03-17T08:18:25;7.70;99.90
3275;DHT22;1649;53.672;10.064;2024-03-17T08:20:53;7.50;99.90
3275;DHT22;1649;53.672;10.064;2024-03-17T08:23:19;7.50;99.90
3275;DHT22;1649;53.672;10.064;2024-03-17T08:25:55;7.40;99.90
3275;DHT22;1649;53.672;10.064;2024-03-17T08:28:22;7.40;99.90
3275;DHT22;1649;53.672;10.064;2024-03-17T08:30:54;7.20;99.90
3275;DHT22;1649;53.672;10.064;2024-03-17T08:33:21;7.10;99.90
3275;DHT22;1649;53.672;10.064;2024-03-17T08:36:07;7.10;99.90
3275;DHT22;1649;53.672;10.064;2024-03-17T08:38:33;7.30;99.90
3275;DHT22;1649;53.672;10.064;2024-03-17T08:41:03;7.40;99.90
3275;DHT22;1649;53.672;10.064;2024-03-17T08:43:30;7.90;99.90
3275;DHT22;1649;53.672;10.064;2024-03-17T08:46:02;8.60;99.90
3275;DHT22;1649;53.672;10.064;2024-03-17T08:48:29;9.70;99.90
3275;DHT22;1649;53.672;10.064;2024-03-17T08:50:56;10.40;99.20
3275;DHT22;1649;53.672;10.064;2024-03-17T08:53:22;11.00;98.70
3275;DHT22;1649;53.672;10.064;2024-03-17T08:55:48;11.00;97.70
3275;DHT22;1649;53.672;10.064;2024-03-17T08:58:14;11.50;97.70
3275;DHT22;1649;53.672;10.064;2024-03-17T09:00:40;11.70;97.60
3275;DHT22;1649;53.672;10.064;2024-03-17T09:03:09;12.10;96.30
3275;DHT22;1649;53.672;10.064;2024-03-17T09:05:36;12.30;96.40
3275;DHT22;1649;53.672;10.064;2024-03-17T09:08:02;12.90;96.30
3275;DHT22;1649;53.672;10.064;2024-03-17T09:10:27;13.20;94.80
3275;DHT22;1649;53.672;10.064;2024-03-17T09:12:53;12.70;93.90
3275;DHT22;1649;53.672;10.064;2024-03-17T09:15:19;12.60;94.30
3275;DHT22;1649;53.672;10.064;2024-03-17T09:17:46;13.00;94.60
3275;DHT22;1649;53.672;10.064;2024-03-17T09:20:13;13.10;94.30
3275;DHT22;1649;53.672;10.064;2024-03-17T09:22:40;13.40;93.40
3275;DHT22;1649;53.672;10.064;2024-03-17T09:25:06;13.10;92.80
3275;DHT22;1649;53.672;10.064;2024-03-17T09:27:33;12.30;92.80
3275;DHT22;1649;53.672;10.064;2024-03-17T09:29:59;12.60;93.70
3275;DHT22;1649;53.672;10.064;2024-03-17T09:32:25;13.00;93.00
3275;DHT22;1649;53.672;10.064;2024-03-17T09:34:50;13.20;93.00
3275;DHT22;1649;53.672;10.064;2024-03-17T09:37:16;13.40;93.30
3275;DHT22;1649;53.672;10.064;2024-03-17T09:39:42;13.90;93.20
3275;DHT22;1649;53.672;10.064;2024-03-17T09:42:18;14.00;91.70
3275;DHT22;1649;53.672;10.064;2024-03-17T09:44:48;13.80;91.50
3275;DHT22;1649;53.672;10.064;2024-03-17T09:47:20;14.30;92.00
3275;DHT22;1649;53.672;10.064;2024-03-17T09:49:49;14.00;90.40
3275;DHT22;1649;53.672;10.064;2024-03-17T09:52:23;14.30;92.50
3275;DHT22;1649;53.672;10.064;2024-03-17T09:57:21;14.40;90.40
3275;DHT22;1649;53.672;10.064;2024-03-17T09:59:53;14.40;86.30
3275;DHT22;1649;53.672;10.064;2024-03-17T10:02:19;14.20;89.00
3275;DHT22;1649;53.672;10.064;2024-03-17T10:04:44;14.10;89.20
3275;DHT22;1649;53.672;10.064;2024-03-17T10:07:10;13.50;88.10
3275;DHT22;1649;53.672;10.064;2024-03-17T10:09:36;13.10;85.70
3275;DHT22;1649;53.672;10.064;2024-03-17T10:12:02;12.60;87.30
3275;DHT22;1649;53.672;10.064;2024-03-17T10:14:28;11.70;87.00
3275;DHT22;1649;53.672;10.064;2024-03-17T10:16:54;10.80;87.90
3275;DHT22;1649;53.672;10.064;2024-03-17T10:19:26;10.60;91.40
3275;DHT22;1649;53.672;10.064;2024-03-17T10:22:00;10.40;91.60
3275;DHT22;1649;53.672;10.064;2024-03-17T10:24:27;10.30;91.20
3275;DHT22;1649;53.672;10.064;2024-03-17T10:26:57;10.00;90.50
3275;DHT22;1649;53.672;10.064;2024-03-17T10:29:33;10.30;91.60
3275;DHT22;1649;53.672;10.064;2024-03-17T10:32:14;11.10;92.10
3275;DHT22;1649;53.672;10.064;2024-03-17T10:34:41;11.80;90.30
3275;DHT22;1649;53.672;10.064;2024-03-17T10:37:11;12.30;87.60
3275;DHT22;1649;53.672;10.064;2024-03-17T10:39:40;12.80;89.20
3275;DHT22;1649;53.672;10.064;2024-03-17T10:42:07;13.40;87.40
3275;DHT22;1649;53.672;10.064;2024-03-17T10:44:35;13.50;90.30
3275;DHT22;1649;53.672;10.064;2024-03-17T10:47:02;13.80;87.50
3275;DHT22;1649;53.672;10.064;2024-03-17T10:49:30;14.20;90.70
3275;DHT22;1649;53.672;10.064;2024-03-17T10:52:08;14.10;85.90
3275;DHT22;1649;53.672;10.064;2024-03-17T10:54:38;13.90;83.80
3275;DHT22;1649;53.672;10.064;2024-03-17T10:59:49;13.60;84.20
3275;DHT22;1649;53.672;10.064;2024-03-17T11:02:25;13.60;86.00
3275;DHT22;1649;53.672;10.064;2024-03-17T11:04:55;14.10;90.00
3275;DHT22;1649;53.672;10.064;2024-03-17T11:07:22;14.10;86.30
3275;DHT22;1649;53.672;10.064;2024-03-17T11:09:49;14.20;88.50
3275;DHT22;1649;53.672;10.064;2024-03-17T11:18:33;13.30;81.90
3275;DHT22;1649;53.672;10.064;2024-03-17T11:20:34;13.30;82.30
3275;DHT22;1649;53.672;10.064;2024-03-17T11:23:01;13.00;81.70
3275;DHT22;1649;53.672;10.064;2024-03-17T11:28:01;12.70;83.40
3275;DHT22;1649;53.672;10.064;2024-03-17T11:30:49;12.40;81.80
3275;DHT22;1649;53.672;10.064;2024-03-17T11:38:54;12.30;81.70
3275;DHT22;1649;53.672;10.064;2024-03-17T11:41:42;11.90;84.70
3275;DHT22;1649;53.672;10.064;2024-03-17T11:44:24;11.90;85.20
3275;DHT22;1649;53.672;10.064;2024-03-17T11:46:54;11.80;83.80
3275;DHT22;1649;53.672;10.064;2024-03-17T11:51:46;12.20;85.10
3275;DHT22;1649;53.672;10.064;2024-03-17T11:54:17;12.30;84.90
3275;DHT22;1649;53.672;10.064;2024-03-17T11:56:48;12.60;89.70
3275;DHT22;1649;53.672;10.064;2024-03-17T11:59:14;12.50;86.90
3275;DHT22;1649;53.672;10.064;2024-03-17T12:01:43;12.20;86.60
3275;DHT22;1649;53.672;10.064;2024-03-17T12:04:10;12.30;89.90
3275;DHT22;1649;53.672;10.064;2024-03-17T12:06:36;12.40;89.40
3275;DHT22;1649;53.672;10.064;2024-03-17T12:09:21;12.50;90.30
3275;DHT22;1649;53.672;10.064;2024-03-17T12:11:51;12.40;86.20
3275;DHT22;1649;53.672;10.064;2024-03-17T12:14:18;12.20;86.00
3275;DHT22;1649;53.672;10.064;2024-03-17T12:19:15;11.70;87.80
3275;DHT22;1649;53.672;10.064;2024-03-17T12:21:44;11.80;87.40
3275;DHT22;1649;53.672;10.064;2024-03-17T12:24:18;11.80;86.50
3275;DHT22;1649;53.672;10.064;2024-03-17T12:26:45;11.90;87.30
3275;DHT22;1649;53.672;10.064;2024-03-17T12:29:31;12.10;89.20
3275;DHT22;1649;53.672;10.064;2024-03-17T12:32:05;11.80;86.60
3275;DHT22;1649;53.672;10.064;2024-03-17T12:34:32;12.20;88.90
3275;DHT22;1649;53.672;10.064;2024-03-17T12:36:59;12.30;89.70
3275;DHT22;1649;53.672;10.064;2024-03-17T12:39:27;12.40;86.00
3275;DHT22;1649;53.672;10.064;2024-03-17T12:42:23;12.60;88.20
3275;DHT22;1649;53.672;10.064;2024-03-17T12:44:59;12.40;83.40
3275;DHT22;1649;53.672;10.064;2024-03-17T12:47:29;12.10;87.20
3275;DHT22;1649;53.672;10.064;2024-03-17T12:49:59;12.00;85.40
3275;DHT22;1649;53.672;10.064;2024-03-17T12:52:29;12.00;87.80
3275;DHT22;1649;53.672;10.064;2024-03-17T12:54:58;11.80;85.00
3275;DHT22;1649;53.672;10.064;2024-03-17T12:57:43;11.80;86.50
3275;DHT22;1649;53.672;10.064;2024-03-17T13:00:27;11.60;86.90
3275;DHT22;1649;53.672;10.064;2024-03-17T13:03:02;11.60;86.30
3275;DHT22;1649;53.672;10.064;2024-03-17T13:05:29;11.50;86.80
3275;DHT22;1649;53.672;10.064;2024-03-17T13:07:55;11.40;89.30
3275;DHT22;1649;53.672;10.064;2024-03-17T13:10:22;11.60;90.30
3275;DHT22;1649;53.672;10.064;2024-03-17T13:12:48;11.50;87.10
3275;DHT22;1649;53.672;10.064;2024-03-17T13:15:23;11.50;87.70
3275;DHT22;1649;53.672;10.064;2024-03-17T13:17:48;11.40;88.10
3275;DHT22;1649;53.672;10.064;2024-03-17T13:20:15;11.30;89.70
3275;DHT22;1649;53.672;10.064;2024-03-17T13:22:42;11.40;88.70
3275;DHT22;1649;53.672;10.064;2024-03-17T13:25:13;11.40;86.00
3275;DHT22;1649;53.672;10.064;2024-03-17T13:27:39;11.30;86.10
3275;DHT22;1649;53.672;10.064;2024-03-17T13:30:05;11.40;86.70
3275;DHT22;1649;53.672;10.064;2024-03-17T13:32:31;11.30;88.00
3275;DHT22;1649;53.672;10.064;2024-03-17T13:34:57;11.40;87.30
3275;DHT22;1649;53.672;10.064;2024-03-17T13:37:22;11.40;87.50
3275;DHT22;1649;53.672;10.064;2024-03-17T13:39:48;11.20;86.60
3275;DHT22;1649;53.672;10.064;2024-03-17T13:42:14;11.20;87.70
3275;DHT22;1649;53.672;10.064;2024-03-17T13:44:40;11.20;87.20
3275;DHT22;1649;53.672;10.064;2024-03-17T13:47:05;11.30;88.50
3275;DHT22;1649;53.672;10.064;2024-03-17T13:49:31;11.20;85.40
3275;DHT22;1649;53.672;10.064;2024-03-17T13:51:56;11.30;89.20
3275;DHT22;1649;53.672;10.064;2024-03-17T13:54:22;11.40;88.00
3275;DHT22;1649;53.672;10.064;2024-03-17T13:56:48;11.50;86.60
3275;DHT22;1649;53.672;10.064;2024-03-17T13:59:15;11.40;86.30
3275;DHT22;1649;53.672;10.064;2024-03-17T14:01:41;11.30;86.50
3275;DHT22;1649;53.672;10.064;2024-03-17T14:04:13;11.10;86.80
3275;DHT22;1649;53.672;10.064;2024-03-17T14:06:41;11.00;88.40
3275;DHT22;1649;53.672;10.064;2024-03-17T14:09:06;11.10;88.20
3275;DHT22;1649;53.672;10.064;2024-03-17T14:11:34;11.30;87.30
3275;DHT22;1649;53.672;10.064;2024-03-17T14:14:00;11.10;85.00
3275;DHT22;1649;53.672;10.064;2024-03-17T14:16:26;11.10;89.70
3275;DHT22;1649;53.672;10.064;2024-03-17T14:18:51;11.10;87.20
3275;DHT22;1649;53.672;10.064;2024-03-17T14:21:16;10.90;85.90
3275;DHT22;1649;53.672;10.064;2024-03-17T14:23:42;10.70;86.80
3275;DHT22;1649;53.672;10.064;2024-03-17T14:26:10;10.60;89.00
3275;DHT22;1649;53.672;10.064;2024-03-17T14:28:36;10.50;87.90
3275;DHT22;1649;53.672;10.064;2024-03-17T14:31:02;10.40;88.00
3275;DHT22;1649;53.672;10.064;2024-03-17T14:33:27;10.50;89.70
3275;DHT22;1649;53.672;10.064;2024-03-17T14:35:56;10.30;88.70
3275;DHT22;1649;53.672;10.064;2024-03-17T14:38:22;10.30;89.40
3275;DHT22;1649;53.672;10.064;2024-03-17T14:40:51;10.30;89.20
3275;DHT22;1649;53.672;10.064;2024-03-17T14:43:17;10.20;88.70
3275;DHT22;1649;53.672;10.064;2024-03-17T14:45:42;10.20;89.80
3275;DHT22;1649;53.672;10.064;2024-03-17T14:48:08;10.30;90.20
3275;DHT22;1649;53.672;10.064;2024-03-17T14:50:35;10.30;89.80
3275;DHT22;1649;53.672;10.064;2024-03-17T14:53:01;10.30;90.20
3275;DHT22;1649;53.672;10.064;2024-03-17T14:55:27;10.30;89.60
3275;DHT22;1649;53.672;10.064;2024-03-17T14:57:53;10.40;90.20
3275;DHT22;1649;53.672;10.064;2024-03-17T15:00:19;10.40;88.10
3275;DHT22;1649;53.672;10.064;2024-03-17T15:02:46;10.40;89.60
3275;DHT22;1649;53.672;10.064;2024-03-17T15:05:13;10.30;88.40
3275;DHT22;1649;53.672;10.064;2024-03-17T15:07:40;10.40;88.70
3275;DHT22;1649;53.672;10.064;2024-03-17T15:10:06;10.40;88.60
3275;DHT22;1649;53.672;10.064;2024-03-17T15:12:32;10.30;87.70
3275;DHT22;1649;53.672;10.064;2024-03-17T15:14:57;10.20;88.90
3275;DHT22;1649;53.672;10.064;2024-03-17T15:17:23;10.10;88.30
3275;DHT22;1649;53.672;10.064;2024-03-17T15:19:48;10.00;88.70
3275;DHT22;1649;53.672;10.064;2024-03-17T15:22:14;9.90;89.40
3275;DHT22;1649;53.672;10.064;2024-03-17T15:24:40;10.00;87.60
3275;DHT22;1649;53.672;10.064;2024-03-17T15:27:05;9.90;88.80
3275;DHT22;1649;53.672;10.064;2024-03-17T15:29:31;9.90;89.20
3275;DHT22;1649;53.672;10.064;2024-03-17T15:31:57;9.80;87.80
3275;DHT22;1649;53.672;10.064;2024-03-17T15:34:23;9.80;89.20
3275;DHT22;1649;53.672;10.064;2024-03-17T15:36:48;9.70;89.80
3275;DHT22;1649;53.672;10.064;2024-03-17T15:39:15;9.60;88.00
3275;DHT22;1649;53.672;10.064;2024-03-17T15:41:41;9.60;88.10
3275;DHT22;1649;53.672;10.064;2024-03-17T15:44:06;9.50;89.10
3275;DHT22;1649;53.672;10.064;2024-03-17T15:46:32;9.50;90.10
3275;DHT22;1649;53.672;10.064;2024-03-17T15:48:58;9.50;90.00
3275;DHT22;1649;53.672;10.064;2024-03-17T15:51:24;9.60;90.60
3275;DHT22;1649;53.672;10.064;2024-03-17T15:53:50;9.50;89.60
3275;DHT22;1649;53.672;10.064;2024-03-17T15:56:16;9.50;89.90
3275;DHT22;1649;53.672;10.064;2024-03-17T15:58:42;9.50;90.40
3275;DHT22;1649;53.672;10.064;2024-03-17T16:01:08;9.40;90.50
3275;DHT22;1649;53.672;10.064;2024-03-17T16:03:37;9.30;90.10
3275;DHT22;1649;53.672;10.064;2024-03-17T16:06:07;9.10;90.10
3275;DHT22;1649;53.672;10.064;2024-03-17T16:08:38;9.10;90.60
3275;DHT22;1649;53.672;10.064;2024-03-17T16:11:06;9.10;90.90
3275;DHT22;1649;53.672;10.064;2024-03-17T16:13:35;9.20;90.90
3275;DHT22;1649;53.672;10.064;2024-03-17T16:16:01;9.20;91.30
3275;DHT22;1649;53.672;10.064;2024-03-17T16:18:27;9.20;91.30
3275;DHT22;1649;53.672;10.064;2024-03-17T16:21:00;9.20;91.00